sensor_id;sensor_type;location;lat;lon;timestamp;P1;durP1;ratioP1;P2;durP2;ratioP2
3000;SDS011;1510;51.072;6.678;2023-04-19T00:00:04;21.57;;;13.57;;
3000;SDS011;1510;51.072;6.678;2023-04-19T00:02:33;18.80;;;12.60;;
3000;SDS011;1510;51.072;6.678;2023-04-19T00:05:00;20.03;;;13.70;;
3000;SDS011;1510;51.072;6.678;2023-04-19T00:07:27;21.63;;;14.20;;
3000;SDS011;1510;51.072;6.678;2023-04-19T00:09:54;21.40;;;13.93;;
3000;SDS011;1510;51.072;6.678;2023-04-19T00:12:21;35.90;;;15.20;;
3000;SDS011;1510;51.072;6.678;2023-04-19T00:14:49;21.70;;;13.77;;
3000;SDS011;1510;51.072;6.678;2023-04-19T00:17:16;20.03;;;13.17;;
3000;SDS011;1510;51.072;6.678;2023-04-19T00:19:44;23.60;;;14.37;;
3000;SDS011;1510;51.072;6.678;2023-04-19T00:22:12;23.20;;;15.30;;
3000;SDS011;1510;51.072;6.678;2023-04-19T00:24:39;28.57;;;14.80;;
3000;SDS011;1510;51.072;6.678;2023-04-19T00:27:06;23.47;;;13.93;;
3000;SDS011;1510;51.072;6.678;2023-04-19T00:29:33;24.93;;;14.70;;
3000;SDS011;1510;51.072;6.678;2023-04-19T00:32:03;21.10;;;13.50;;
3000;SDS011;1510;51.072;6.678;2023-04-19T00:34:31;25.80;;;13.80;;
3000;SDS011;1510;51.072;6.678;2023-04-19T00:36:58;26.40;;;14.63;;
3000;SDS011;1510;51.072;6.678;2023-04-19T00:39:25;22.83;;;14.70;;
3000;SDS011;1510;51.072;6.678;2023-04-19T00:41:53;22.40;;;15.13;;
3000;SDS011;1510;51.072;6.678;2023-04-19T00:44:21;25.10;;;15.73;;
3000;SDS011;1510;51.072;6.678;2023-04-19T00:46:48;22.07;;;14.93;;
3000;SDS011;1510;51.072;6.678;2023-04-19T00:49:17;25.33;;;15.33;;
3000;SDS011;1510;51.072;6.678;2023-04-19T00:51:45;22.80;;;14.60;;
3000;SDS011;1510;51.072;6.678;2023-04-19T00:54:13;24.37;;;17.20;;
3000;SDS011;1510;51.072;6.678;2023-04-19T00:56:40;24.40;;;15.70;;
3000;SDS011;1510;51.072;6.678;2023-04-19T00:59:09;20.50;;;13.57;;
3000;SDS011;1510;51.072;6.678;2023-04-19T01:01:37;24.50;;;15.73;;
3000;SDS011;1510;51.072;6.678;2023-04-19T01:04:05;15.60;;;10.57;;
3000;SDS011;1510;51.072;6.678;2023-04-19T01:06:35;26.50;;;15.33;;
3000;SDS011;1510;51.072;6.678;2023-04-19T01:09:03;24.03;;;16.10;;
3000;SDS011;1510;51.072;6.678;2023-04-19T01:11:30;23.17;;;15.37;;
3000;SDS011;1510;51.072;6.678;2023-04-19T01:13:59;26.37;;;15.27;;
3000;SDS011;1510;51.072;6.678;2023-04-19T01:16:26;21.77;;;14.60;;
3000;SDS011;1510;51.072;6.678;2023-04-19T01:19:00;23.70;;;13.70;;
3000;SDS011;1510;51.072;6.678;2023-04-19T01:21:28;20.60;;;14.13;;
3000;SDS011;1510;51.072;6.678;2023-04-19T01:23:58;19.97;;;13.53;;
3000;SDS011;1510;51.072;6.678;2023-04-19T01:26:25;22.90;;;14.23;;
3000;SDS011;1510;51.072;6.678;2023-04-19T01:28:52;22.77;;;14.47;;
3000;SDS011;1510;51.072;6.678;2023-04-19T01:31:26;26.23;;;13.97;;
3000;SDS011;1510;51.072;6.678;2023-04-19T01:33:53;27.50;;;15.87;;
3000;SDS011;1510;51.072;6.678;2023-04-19T01:36:21;26.17;;;16.27;;
3000;SDS011;1510;51.072;6.678;2023-04-19T01:38:48;24.10;;;15.23;;
3000;SDS011;1510;51.072;6.678;2023-04-19T01:41:19;23.93;;;14.33;;
3000;SDS011;1510;51.072;6.678;2023-04-19T01:43:47;21.17;;;13.70;;
3000;SDS011;1510;51.072;6.678;2023-04-19T01:46:14;21.70;;;14.40;;
3000;SDS011;1510;51.072;6.678;2023-04-19T01:48:42;22.73;;;14.30;;
3000;SDS011;1510;51.072;6.678;2023-04-19T01:51:11;22.73;;;14.73;;
3000;SDS011;1510;51.072;6.678;2023-04-19T01:53:38;25.97;;;17.03;;
3000;SDS011;1510;51.072;6.678;2023-04-19T01:56:05;22.53;;;13.50;;
3000;SDS011;1510;51.072;6.678;2023-04-19T01:58:33;24.83;;;13.87;;
3000;SDS011;1510;51.072;6.678;2023-04-19T02:01:00;19.97;;;14.03;;
3000;SDS011;1510;51.072;6.678;2023-04-19T02:03:27;21.80;;;15.10;;
3000;SDS011;1510;51.072;6.678;2023-04-19T02:05:55;21.50;;;13.07;;
3000;SDS011;1510;51.072;6.678;2023-04-19T02:08:22;20.57;;;13.00;;
3000;SDS011;1510;51.072;6.678;2023-04-19T02:10:48;22.30;;;14.00;;
3000;SDS011;1510;51.072;6.678;2023-04-19T02:13:15;22.50;;;14.77;;
3000;SDS011;1510;51.072;6.678;2023-04-19T02:15:43;28.70;;;16.83;;
3000;SDS011;1510;51.072;6.678;2023-04-19T02:18:12;30.20;;;17.90;;
3000;SDS011;1510;51.072;6.678;2023-04-19T02:20:39;21.70;;;14.30;;
3000;SDS011;1510;51.072;6.678;2023-04-19T02:23:06;27.83;;;17.90;;
3000;SDS011;1510;51.072;6.678;2023-04-19T02:25:33;23.90;;;15.80;;
3000;SDS011;1510;51.072;6.678;2023-04-19T02:28:00;29.83;;;16.77;;
3000;SDS011;1510;51.072;6.678;2023-04-19T02:30:28;26.00;;;17.00;;
3000;SDS011;1510;51.072;6.678;2023-04-19T02:32:56;25.70;;;15.27;;
3000;SDS011;1510;51.072;6.678;2023-04-19T02:35:23;28.03;;;19.37;;
3000;SDS011;1510;51.072;6.678;2023-04-19T02:37:50;30.80;;;21.93;;
3000;SDS011;1510;51.072;6.678;2023-04-19T02:40:17;24.10;;;19.70;;
3000;SDS011;1510;51.072;6.678;2023-04-19T02:42:46;33.40;;;21.37;;
3000;SDS011;1510;51.072;6.678;2023-04-19T02:45:14;27.60;;;24.23;;
3000;SDS011;1510;51.072;6.678;2023-04-19T02:47:43;27.83;;;23.63;;
3000;SDS011;1510;51.072;6.678;2023-04-19T02:50:12;28.77;;;23.10;;
3000;SDS011;1510;51.072;6.678;2023-04-19T02:52:40;25.90;;;21.73;;
3000;SDS011;1510;51.072;6.678;2023-04-19T02:55:07;29.63;;;26.47;;
3000;SDS011;1510;51.072;6.678;2023-04-19T02:57:36;30.47;;;25.90;;
3000;SDS011;1510;51.072;6.678;2023-04-19T03:00:03;35.50;;;32.53;;
3000;SDS011;1510;51.072;6.678;2023-04-19T03:02:32;35.93;;;32.37;;
3000;SDS011;1510;51.072;6.678;2023-04-19T03:05:00;31.77;;;28.47;;
3000;SDS011;1510;51.072;6.678;2023-04-19T03:07:29;24.50;;;21.83;;
3000;SDS011;1510;51.072;6.678;2023-04-19T03:09:57;28.00;;;25.10;;
3000;SDS011;1510;51.072;6.678;2023-04-19T03:12:24;26.33;;;21.53;;
3000;SDS011;1510;51.072;6.678;2023-04-19T03:14:51;27.50;;;21.37;;
3000;SDS011;1510;51.072;6.678;2023-04-19T03:17:18;27.60;;;22.40;;
3000;SDS011;1510;51.072;6.678;2023-04-19T03:19:45;25.63;;;20.37;;
3000;SDS011;1510;51.072;6.678;2023-04-19T03:22:13;23.03;;;18.83;;
3000;SDS011;1510;51.072;6.678;2023-04-19T03:24:43;19.90;;;15.47;;
3000;SDS011;1510;51.072;6.678;2023-04-19T03:27:10;31.53;;;21.20;;
3000;SDS011;1510;51.072;6.678;2023-04-19T03:29:37;23.27;;;16.77;;
3000;SDS011;1510;51.072;6.678;2023-04-19T03:32:04;22.27;;;14.87;;
3000;SDS011;1510;51.072;6.678;2023-04-19T03:34:32;25.00;;;16.80;;
3000;SDS011;1510;51.072;6.678;2023-04-19T03:36:59;23.70;;;17.97;;
3000;SDS011;1510;51.072;6.678;2023-04-19T03:39:28;25.30;;;17.93;;
3000;SDS011;1510;51.072;6.678;2023-04-19T03:41:58;29.57;;;17.47;;
3000;SDS011;1510;51.072;6.678;2023-04-19T03:44:30;26.50;;;19.47;;
3000;SDS011;1510;51.072;6.678;2023-04-19T03:46:58;24.70;;;17.87;;
3000;SDS011;1510;51.072;6.678;2023-04-19T03:49:25;26.50;;;16.33;;
3000;SDS011;1510;51.072;6.678;2023-04-19T03:51:53;21.73;;;14.73;;
3000;SDS011;1510;51.072;6.678;2023-04-19T03:54:20;27.23;;;17.00;;
3000;SDS011;1510;51.072;6.678;2023-04-19T03:56:48;29.63;;;18.77;;
3000;SDS011;1510;51.072;6.678;2023-04-19T03:59:16;25.90;;;18.60;;
3000;SDS011;1510;51.072;6.678;2023-04-19T04:01:44;25.97;;;18.27;;
3000;SDS011;1510;51.072;6.678;2023-04-19T04:04:14;26.43;;;17.50;;
3000;SDS011;1510;51.072;6.678;2023-04-19T04:06:42;23.10;;;14.77;;
3000;SDS011;1510;51.072;6.678;2023-04-19T04:09:09;24.60;;;17.10;;
3000;SDS011;1510;51.072;6.678;2023-04-19T04:11:37;27.40;;;18.00;;
3000;SDS011;1510;51.072;6.678;2023-04-19T04:14:05;22.50;;;16.80;;
3000;SDS011;1510;51.072;6.678;2023-04-19T04:16:34;27.10;;;18.33;;
3000;SDS011;1510;51.072;6.678;2023-04-19T04:19:00;22.97;;;15.90;;
3000;SDS011;1510;51.072;6.678;2023-04-19T04:21:29;25.17;;;15.63;;
3000;SDS011;1510;51.072;6.678;2023-04-19T04:23:59;28.67;;;16.57;;
3000;SDS011;1510;51.072;6.678;2023-04-19T04:26:27;25.43;;;17.57;;
3000;SDS011;1510;51.072;6.678;2023-04-19T04:29:03;24.03;;;16.97;;
3000;SDS011;1510;51.072;6.678;2023-04-19T04:31:30;24.53;;;14.50;;
3000;SDS011;1510;51.072;6.678;2023-04-19T04:34:01;25.20;;;16.83;;
3000;SDS011;1510;51.072;6.678;2023-04-19T04:36:28;24.87;;;16.93;;
3000;SDS011;1510;51.072;6.678;2023-04-19T04:38:56;23.70;;;16.03;;
3000;SDS011;1510;51.072;6.678;2023-04-19T04:41:25;27.03;;;16.33;;
3000;SDS011;1510;51.072;6.678;2023-04-19T04:43:55;34.43;;;17.43;;
3000;SDS011;1510;51.072;6.678;2023-04-19T04:46:23;25.23;;;16.90;;
3000;SDS011;1510;51.072;6.678;2023-04-19T04:48:52;29.23;;;16.70;;
3000;SDS011;1510;51.072;6.678;2023-04-19T04:51:21;23.10;;;16.00;;
3000;SDS011;1510;51.072;6.678;2023-04-19T04:53:47;25.87;;;15.93;;
3000;SDS011;1510;51.072;6.678;2023-04-19T04:56:14;21.43;;;14.20;;
3000;SDS011;1510;51.072;6.678;2023-04-19T04:58:41;15.23;;;10.77;;
3000;SDS011;1510;51.072;6.678;2023-04-19T05:01:09;21.13;;;13.50;;
3000;SDS011;1510;51.072;6.678;2023-04-19T05:03:35;17.43;;;12.93;;
3000;SDS011;1510;51.072;6.678;2023-04-19T05:06:03;19.37;;;12.20;;
3000;SDS011;1510;51.072;6.678;2023-04-19T05:08:32;21.20;;;12.80;;
3000;SDS011;1510;51.072;6.678;2023-04-19T05:10:59;28.60;;;14.93;;
3000;SDS011;1510;51.072;6.678;2023-04-19T05:13:26;16.50;;;11.00;;
3000;SDS011;1510;51.072;6.678;2023-04-19T05:15:53;20.10;;;10.67;;
3000;SDS011;1510;51.072;6.678;2023-04-19T05:18:20;19.17;;;10.53;;
3000;SDS011;1510;51.072;6.678;2023-04-19T05:20:47;18.47;;;10.83;;
3000;SDS011;1510;51.072;6.678;2023-04-19T05:23:14;16.13;;;8.77;;
3000;SDS011;1510;51.072;6.678;2023-04-19T05:25:42;14.33;;;8.83;;
3000;SDS011;1510;51.072;6.678;2023-04-19T05:28:09;12.80;;;8.47;;
3000;SDS011;1510;51.072;6.678;2023-04-19T05:30:36;13.63;;;9.40;;
3000;SDS011;1510;51.072;6.678;2023-04-19T05:33:03;17.00;;;8.50;;
3000;SDS011;1510;51.072;6.678;2023-04-19T05:35:30;13.90;;;8.33;;
3000;SDS011;1510;51.072;6.678;2023-04-19T05:37:57;12.10;;;6.57;;
3000;SDS011;1510;51.072;6.678;2023-04-19T05:40:25;13.90;;;9.03;;
3000;SDS011;1510;51.072;6.678;2023-04-19T05:42:54;12.50;;;8.00;;
3000;SDS011;1510;51.072;6.678;2023-04-19T05:45:21;13.50;;;7.80;;
3000;SDS011;1510;51.072;6.678;2023-04-19T05:47:50;11.33;;;6.63;;
3000;SDS011;1510;51.072;6.678;2023-04-19T05:50:17;11.60;;;6.00;;
3000;SDS011;1510;51.072;6.678;2023-04-19T05:52:45;9.37;;;4.50;;
3000;SDS011;1510;51.072;6.678;2023-04-19T05:55:12;11.30;;;6.10;;
3000;SDS011;1510;51.072;6.678;2023-04-19T05:57:39;8.47;;;4.90;;
3000;SDS011;1510;51.072;6.678;2023-04-19T06:00:08;10.97;;;6.73;;
3000;SDS011;1510;51.072;6.678;2023-04-19T06:02:35;11.97;;;5.40;;
3000;SDS011;1510;51.072;6.678;2023-04-19T06:05:02;14.53;;;7.60;;
3000;SDS011;1510;51.072;6.678;2023-04-19T06:07:31;10.00;;;5.97;;
3000;SDS011;1510;51.072;6.678;2023-04-19T06:09:58;10.63;;;5.80;;
3000;SDS011;1510;51.072;6.678;2023-04-19T06:12:25;10.13;;;6.13;;
3000;SDS011;1510;51.072;6.678;2023-04-19T06:14:52;10.50;;;5.60;;
3000;SDS011;1510;51.072;6.678;2023-04-19T06:17:21;11.43;;;5.90;;
3000;SDS011;1510;51.072;6.678;2023-04-19T06:19:49;11.13;;;5.20;;
3000;SDS011;1510;51.072;6.678;2023-04-19T06:22:16;12.40;;;6.00;;
3000;SDS011;1510;51.072;6.678;2023-04-19T06:24:43;10.30;;;5.67;;
3000;SDS011;1510;51.072;6.678;2023-04-19T06:27:12;15.30;;;6.20;;
3000;SDS011;1510;51.072;6.678;2023-04-19T06:29:40;13.17;;;6.40;;
3000;SDS011;1510;51.072;6.678;2023-04-19T06:32:07;11.53;;;6.73;;
3000;SDS011;1510;51.072;6.678;2023-04-19T06:34:36;12.23;;;6.20;;
3000;SDS011;1510;51.072;6.678;2023-04-19T06:37:03;10.03;;;5.90;;
3000;SDS011;1510;51.072;6.678;2023-04-19T06:39:29;9.10;;;5.33;;
3000;SDS011;1510;51.072;6.678;2023-04-19T06:41:57;13.13;;;7.07;;
3000;SDS011;1510;51.072;6.678;2023-04-19T06:44:23;10.80;;;6.60;;
3000;SDS011;1510;51.072;6.678;2023-04-19T06:46:50;9.70;;;4.30;;
3000;SDS011;1510;51.072;6.678;2023-04-19T06:49:17;9.80;;;5.33;;
3000;SDS011;1510;51.072;6.678;2023-04-19T06:51:45;10.70;;;6.10;;
3000;SDS011;1510;51.072;6.678;2023-04-19T06:54:13;11.20;;;6.47;;
3000;SDS011;1510;51.072;6.678;2023-04-19T06:56:41;9.07;;;5.30;;
3000;SDS011;1510;51.072;6.678;2023-04-19T06:59:09;10.93;;;5.00;;
3000;SDS011;1510;51.072;6.678;2023-04-19T07:01:37;5.73;;;2.80;;
3000;SDS011;1510;51.072;6.678;2023-04-19T07:04:05;13.50;;;6.57;;
3000;SDS011;1510;51.072;6.678;2023-04-19T07:06:32;9.17;;;4.97;;
3000;SDS011;1510;51.072;6.678;2023-04-19T07:09:01;9.80;;;3.97;;
3000;SDS011;1510;51.072;6.678;2023-04-19T07:11:29;12.33;;;5.33;;
3000;SDS011;1510;51.072;6.678;2023-04-19T07:13:57;11.13;;;5.68;;
3000;SDS011;1510;51.072;6.678;2023-04-19T07:16:24;11.53;;;5.53;;
3000;SDS011;1510;51.072;6.678;2023-04-19T07:18:52;9.97;;;5.40;;
3000;SDS011;1510;51.072;6.678;2023-04-19T07:21:19;7.37;;;3.90;;
3000;SDS011;1510;51.072;6.678;2023-04-19T07:23:46;14.40;;;6.10;;
3000;SDS011;1510;51.072;6.678;2023-04-19T07:26:15;10.40;;;5.03;;
3000;SDS011;1510;51.072;6.678;2023-04-19T07:28:42;9.13;;;5.03;;
3000;SDS011;1510;51.072;6.678;2023-04-19T07:31:13;8.63;;;4.83;;
3000;SDS011;1510;51.072;6.678;2023-04-19T07:33:40;9.90;;;4.80;;
3000;SDS011;1510;51.072;6.678;2023-04-19T07:36:08;11.30;;;6.10;;
3000;SDS011;1510;51.072;6.678;2023-04-19T07:38:35;9.60;;;5.60;;
3000;SDS011;1510;51.072;6.678;2023-04-19T07:41:02;20.60;;;5.73;;
3000;SDS011;1510;51.072;6.678;2023-04-19T07:43:31;12.93;;;5.47;;
3000;SDS011;1510;51.072;6.678;2023-04-19T07:45:58;12.07;;;7.43;;
3000;SDS011;1510;51.072;6.678;2023-04-19T07:48:25;9.87;;;5.03;;
3000;SDS011;1510;51.072;6.678;2023-04-19T07:50:52;12.20;;;6.40;;
3000;SDS011;1510;51.072;6.678;2023-04-19T07:53:19;12.90;;;6.23;;
3000;SDS011;1510;51.072;6.678;2023-04-19T07:55:46;11.50;;;5.47;;
3000;SDS011;1510;51.072;6.678;2023-04-19T07:58:22;12.63;;;6.17;;
3000;SDS011;1510;51.072;6.678;2023-04-19T08:00:50;11.70;;;5.63;;
3000;SDS011;1510;51.072;6.678;2023-04-19T08:03:17;10.40;;;5.03;;
3000;SDS011;1510;51.072;6.678;2023-04-19T08:05:44;6.90;;;2.90;;
3000;SDS011;1510;51.072;6.678;2023-04-19T08:08:11;9.70;;;5.57;;
3000;SDS011;1510;51.072;6.678;2023-04-19T08:10:38;11.17;;;5.63;;
3000;SDS011;1510;51.072;6.678;2023-04-19T08:13:05;9.50;;;6.20;;
3000;SDS011;1510;51.072;6.678;2023-04-19T08:15:32;8.80;;;5.10;;
3000;SDS011;1510;51.072;6.678;2023-04-19T08:18:01;8.97;;;5.00;;
3000;SDS011;1510;51.072;6.678;2023-04-19T08:20:28;11.93;;;5.77;;
3000;SDS011;1510;51.072;6.678;2023-04-19T08:22:56;9.43;;;4.73;;
3000;SDS011;1510;51.072;6.678;2023-04-19T08:25:22;8.37;;;4.47;;
3000;SDS011;1510;51.072;6.678;2023-04-19T08:27:51;8.83;;;5.40;;
3000;SDS011;1510;51.072;6.678;2023-04-19T08:30:18;10.03;;;5.13;;
3000;SDS011;1510;51.072;6.678;2023-04-19T08:32:45;8.00;;;4.77;;
3000;SDS011;1510;51.072;6.678;2023-04-19T08:35:13;8.53;;;3.10;;
3000;SDS011;1510;51.072;6.678;2023-04-19T08:37:40;7.80;;;4.87;;
3000;SDS011;1510;51.072;6.678;2023-04-19T08:40:07;8.73;;;4.23;;
3000;SDS011;1510;51.072;6.678;2023-04-19T08:42:35;6.60;;;3.30;;
3000;SDS011;1510;51.072;6.678;2023-04-19T08:45:02;11.53;;;5.37;;
3000;SDS011;1510;51.072;6.678;2023-04-19T08:47:33;9.00;;;4.10;;
3000;SDS011;1510;51.072;6.678;2023-04-19T08:50:04;14.50;;;5.27;;
3000;SDS011;1510;51.072;6.678;2023-04-19T08:52:34;10.33;;;4.27;;
3000;SDS011;1510;51.072;6.678;2023-04-19T08:55:03;8.30;;;3.67;;
3000;SDS011;1510;51.072;6.678;2023-04-19T08:57:31;9.30;;;4.63;;
3000;SDS011;1510;51.072;6.678;2023-04-19T08:59:58;6.47;;;2.73;;
3000;SDS011;1510;51.072;6.678;2023-04-19T09:02:25;11.63;;;3.80;;
3000;SDS011;1510;51.072;6.678;2023-04-19T09:04:52;8.57;;;4.47;;
3000;SDS011;1510;51.072;6.678;2023-04-19T09:07:22;9.03;;;4.47;;
3000;SDS011;1510;51.072;6.678;2023-04-19T09:10:06;8.23;;;4.53;;
3000;SDS011;1510;51.072;6.678;2023-04-19T09:12:35;7.90;;;4.43;;
3000;SDS011;1510;51.072;6.678;2023-04-19T09:15:03;8.70;;;4.20;;
3000;SDS011;1510;51.072;6.678;2023-04-19T09:17:32;14.10;;;3.90;;
3000;SDS011;1510;51.072;6.678;2023-04-19T09:19:59;5.50;;;2.80;;
3000;SDS011;1510;51.072;6.678;2023-04-19T09:22:27;7.13;;;2.90;;
3000;SDS011;1510;51.072;6.678;2023-04-19T09:24:54;8.17;;;3.80;;
3000;SDS011;1510;51.072;6.678;2023-04-19T09:27:25;8.73;;;3.90;;
3000;SDS011;1510;51.072;6.678;2023-04-19T09:29:55;8.30;;;4.20;;
3000;SDS011;1510;51.072;6.678;2023-04-19T09:32:23;8.47;;;4.33;;
3000;SDS011;1510;51.072;6.678;2023-04-19T09:34:51;9.30;;;3.87;;
3000;SDS011;1510;51.072;6.678;2023-04-19T09:37:19;12.17;;;4.10;;
3000;SDS011;1510;51.072;6.678;2023-04-19T09:39:46;12.27;;;3.87;;
3000;SDS011;1510;51.072;6.678;2023-04-19T09:42:14;7.70;;;3.20;;
3000;SDS011;1510;51.072;6.678;2023-04-19T09:44:43;10.43;;;4.07;;
3000;SDS011;1510;51.072;6.678;2023-04-19T09:47:23;9.30;;;3.57;;
3000;SDS011;1510;51.072;6.678;2023-04-19T09:50:04;6.37;;;3.20;;
3000;SDS011;1510;51.072;6.678;2023-04-19T09:52:33;10.23;;;5.27;;
3000;SDS011;1510;51.072;6.678;2023-04-19T09:55:01;17.10;;;3.60;;
3000;SDS011;1510;51.072;6.678;2023-04-19T09:57:31;5.70;;;3.00;;
3000;SDS011;1510;51.072;6.678;2023-04-19T10:00:00;6.63;;;3.87;;
3000;SDS011;1510;51.072;6.678;2023-04-19T10:02:31;12.80;;;4.30;;
3000;SDS011;1510;51.072;6.678;2023-04-19T10:04:59;6.97;;;3.90;;
3000;SDS011;1510;51.072;6.678;2023-04-19T10:07:30;8.17;;;2.80;;
3000;SDS011;1510;51.072;6.678;2023-04-19T10:09:58;9.50;;;3.77;;
3000;SDS011;1510;51.072;6.678;2023-04-19T10:12:26;5.97;;;2.60;;
3000;SDS011;1510;51.072;6.678;2023-04-19T10:14:53;7.60;;;2.93;;
3000;SDS011;1510;51.072;6.678;2023-04-19T10:17:23;9.30;;;4.00;;
3000;SDS011;1510;51.072;6.678;2023-04-19T10:19:51;6.90;;;3.37;;
3000;SDS011;1510;51.072;6.678;2023-04-19T10:22:23;5.80;;;2.80;;
3000;SDS011;1510;51.072;6.678;2023-04-19T10:27:39;5.73;;;2.27;;
3000;SDS011;1510;51.072;6.678;2023-04-19T10:30:15;5.40;;;2.17;;
3000;SDS011;1510;51.072;6.678;2023-04-19T10:32:46;7.00;;;3.20;;
3000;SDS011;1510;51.072;6.678;2023-04-19T10:35:18;6.07;;;2.90;;
3000;SDS011;1510;51.072;6.678;2023-04-19T10:38:03;6.33;;;2.80;;
3000;SDS011;1510;51.072;6.678;2023-04-19T10:43:25;7.53;;;3.03;;
3000;SDS011;1510;51.072;6.678;2023-04-19T10:45:53;5.40;;;2.23;;
3000;SDS011;1510;51.072;6.678;2023-04-19T10:48:31;8.37;;;3.00;;
3000;SDS011;1510;51.072;6.678;2023-04-19T10:50:59;5.60;;;2.60;;
3000;SDS011;1510;51.072;6.678;2023-04-19T10:53:41;5.57;;;2.73;;
3000;SDS011;1510;51.072;6.678;2023-04-19T10:56:20;5.20;;;2.57;;
3000;SDS011;1510;51.072;6.678;2023-04-19T11:01:39;5.70;;;2.40;;
3000;SDS011;1510;51.072;6.678;2023-04-19T11:04:09;6.07;;;1.90;;
3000;SDS011;1510;51.072;6.678;2023-04-19T11:06:37;7.17;;;1.90;;
3000;SDS011;1510;51.072;6.678;2023-04-19T11:09:21;5.93;;;2.13;;
3000;SDS011;1510;51.072;6.678;2023-04-19T11:11:48;5.37;;;2.20;;
3000;SDS011;1510;51.072;6.678;2023-04-19T11:14:16;6.27;;;2.10;;
3000;SDS011;1510;51.072;6.678;2023-04-19T11:16:45;5.00;;;2.07;;
3000;SDS011;1510;51.072;6.678;2023-04-19T11:19:15;6.87;;;2.03;;
3000;SDS011;1510;51.072;6.678;2023-04-19T11:21:43;5.37;;;1.60;;
3000;SDS011;1510;51.072;6.678;2023-04-19T11:24:12;5.10;;;1.60;;
3000;SDS011;1510;51.072;6.678;2023-04-19T11:26:41;10.13;;;2.40;;
3000;SDS011;1510;51.072;6.678;2023-04-19T11:29:08;5.30;;;1.73;;
3000;SDS011;1510;51.072;6.678;2023-04-19T11:31:36;5.80;;;1.60;;
3000;SDS011;1510;51.072;6.678;2023-04-19T11:34:03;6.77;;;2.10;;
3000;SDS011;1510;51.072;6.678;2023-04-19T11:36:32;5.87;;;1.63;;
3000;SDS011;1510;51.072;6.678;2023-04-19T11:39:01;6.83;;;2.43;;
3000;SDS011;1510;51.072;6.678;2023-04-19T11:41:36;5.87;;;1.73;;
3000;SDS011;1510;51.072;6.678;2023-04-19T11:44:11;6.57;;;2.37;;
3000;SDS011;1510;51.072;6.678;2023-04-19T11:46:39;4.90;;;1.90;;
3000;SDS011;1510;51.072;6.678;2023-04-19T11:49:06;4.83;;;1.60;;
3000;SDS011;1510;51.072;6.678;2023-04-19T11:51:34;4.60;;;1.50;;
3000;SDS011;1510;51.072;6.678;2023-04-19T11:54:11;5.20;;;1.70;;
3000;SDS011;1510;51.072;6.678;2023-04-19T11:56:55;9.00;;;2.30;;
3000;SDS011;1510;51.072;6.678;2023-04-19T11:59:26;5.33;;;2.37;;
3000;SDS011;1510;51.072;6.678;2023-04-19T12:01:54;9.73;;;2.60;;
3000;SDS011;1510;51.072;6.678;2023-04-19T12:04:21;12.17;;;1.50;;
3000;SDS011;1510;51.072;6.678;2023-04-19T12:07:00;12.20;;;2.70;;
3000;SDS011;1510;51.072;6.678;2023-04-19T12:09:28;6.63;;;2.40;;
3000;SDS011;1510;51.072;6.678;2023-04-19T12:11:55;6.30;;;2.30;;
3000;SDS011;1510;51.072;6.678;2023-04-19T12:14:22;6.80;;;2.37;;
3000;SDS011;1510;51.072;6.678;2023-04-19T12:17:12;10.53;;;2.80;;
3000;SDS011;1510;51.072;6.678;2023-04-19T12:19:43;8.70;;;2.53;;
3000;SDS011;1510;51.072;6.678;2023-04-19T12:22:13;5.53;;;2.10;;
3000;SDS011;1510;51.072;6.678;2023-04-19T12:24:41;5.67;;;2.20;;
3000;SDS011;1510;51.072;6.678;2023-04-19T12:27:09;10.00;;;2.33;;
3000;SDS011;1510;51.072;6.678;2023-04-19T12:29:41;4.50;;;1.80;;
3000;SDS011;1510;51.072;6.678;2023-04-19T12:32:08;7.17;;;2.37;;
3000;SDS011;1510;51.072;6.678;2023-04-19T12:34:35;9.27;;;3.20;;
3000;SDS011;1510;51.072;6.678;2023-04-19T12:37:02;5.60;;;2.07;;
3000;SDS011;1510;51.072;6.678;2023-04-19T12:39:31;5.43;;;1.70;;
3000;SDS011;1510;51.072;6.678;2023-04-19T12:41:58;7.93;;;2.50;;
3000;SDS011;1510;51.072;6.678;2023-04-19T12:44:26;5.93;;;2.63;;
3000;SDS011;1510;51.072;6.678;2023-04-19T12:46:53;9.30;;;2.80;;
3000;SDS011;1510;51.072;6.678;2023-04-19T12:49:21;7.60;;;1.93;;
3000;SDS011;1510;51.072;6.678;2023-04-19T12:51:48;7.20;;;2.93;;
3000;SDS011;1510;51.072;6.678;2023-04-19T12:54:15;6.70;;;2.90;;
3000;SDS011;1510;51.072;6.678;2023-04-19T12:56:44;7.33;;;2.97;;
3000;SDS011;1510;51.072;6.678;2023-04-19T12:59:11;7.43;;;3.13;;
3000;SDS011;1510;51.072;6.678;2023-04-19T13:01:38;5.93;;;2.50;;
3000;SDS011;1510;51.072;6.678;2023-04-19T13:04:05;8.63;;;3.00;;
3000;SDS011;1510;51.072;6.678;2023-04-19T13:06:35;6.30;;;2.90;;
3000;SDS011;1510;51.072;6.678;2023-04-19T13:09:03;6.78;;;2.72;;
3000;SDS011;1510;51.072;6.678;2023-04-19T13:11:29;7.10;;;2.95;;
3000;SDS011;1510;51.072;6.678;2023-04-19T13:13:58;6.27;;;2.53;;
3000;SDS011;1510;51.072;6.678;2023-04-19T13:16:25;7.87;;;3.00;;
3000;SDS011;1510;51.072;6.678;2023-04-19T13:18:52;6.87;;;2.87;;
3000;SDS011;1510;51.072;6.678;2023-04-19T13:21:20;11.37;;;2.60;;
3000;SDS011;1510;51.072;6.678;2023-04-19T13:23:48;5.33;;;2.43;;
3000;SDS011;1510;51.072;6.678;2023-04-19T13:26:15;6.80;;;2.50;;
3000;SDS011;1510;51.072;6.678;2023-04-19T13:28:42;7.30;;;3.33;;
3000;SDS011;1510;51.072;6.678;2023-04-19T13:31:11;6.50;;;3.20;;
3000;SDS011;1510;51.072;6.678;2023-04-19T13:33:38;4.93;;;2.37;;
3000;SDS011;1510;51.072;6.678;2023-04-19T13:36:05;7.47;;;2.77;;
3000;SDS011;1510;51.072;6.678;2023-04-19T13:38:32;7.30;;;3.30;;
3000;SDS011;1510;51.072;6.678;2023-04-19T13:40:59;6.00;;;2.50;;
3000;SDS011;1510;51.072;6.678;2023-04-19T13:43:27;6.17;;;3.40;;
3000;SDS011;1510;51.072;6.678;2023-04-19T13:46:02;7.80;;;3.33;;
3000;SDS011;1510;51.072;6.678;2023-04-19T13:48:31;9.00;;;3.53;;
3000;SDS011;1510;51.072;6.678;2023-04-19T13:50:58;8.73;;;2.93;;
3000;SDS011;1510;51.072;6.678;2023-04-19T13:53:25;7.63;;;2.93;;
3000;SDS011;1510;51.072;6.678;2023-04-19T13:55:53;8.70;;;2.93;;
3000;SDS011;1510;51.072;6.678;2023-04-19T13:58:21;8.30;;;2.33;;
3000;SDS011;1510;51.072;6.678;2023-04-19T14:00:49;9.60;;;2.90;;
3000;SDS011;1510;51.072;6.678;2023-04-19T14:03:16;7.00;;;3.80;;
3000;SDS011;1510;51.072;6.678;2023-04-19T14:05:44;7.73;;;3.53;;
3000;SDS011;1510;51.072;6.678;2023-04-19T14:08:11;5.87;;;3.00;;
3000;SDS011;1510;51.072;6.678;2023-04-19T14:10:38;9.83;;;3.70;;
3000;SDS011;1510;51.072;6.678;2023-04-19T14:13:05;12.73;;;3.67;;
3000;SDS011;1510;51.072;6.678;2023-04-19T14:15:32;9.00;;;3.50;;
3000;SDS011;1510;51.072;6.678;2023-04-19T14:17:59;8.00;;;3.90;;
3000;SDS011;1510;51.072;6.678;2023-04-19T14:20:26;8.93;;;3.87;;
3000;SDS011;1510;51.072;6.678;2023-04-19T14:22:54;6.80;;;2.70;;
3000;SDS011;1510;51.072;6.678;2023-04-19T14:25:23;7.50;;;3.50;;
3000;SDS011;1510;51.072;6.678;2023-04-19T14:27:49;6.70;;;3.17;;
3000;SDS011;1510;51.072;6.678;2023-04-19T14:30:17;7.03;;;3.47;;
3000;SDS011;1510;51.072;6.678;2023-04-19T14:32:45;11.23;;;3.93;;
3000;SDS011;1510;51.072;6.678;2023-04-19T14:35:12;7.70;;;3.50;;
3000;SDS011;1510;51.072;6.678;2023-04-19T14:37:39;7.13;;;3.20;;
3000;SDS011;1510;51.072;6.678;2023-04-19T14:40:08;7.80;;;4.27;;
3000;SDS011;1510;51.072;6.678;2023-04-19T14:42:35;7.40;;;3.97;;
3000;SDS011;1510;51.072;6.678;2023-04-19T14:45:03;7.17;;;2.97;;
3000;SDS011;1510;51.072;6.678;2023-04-19T14:47:31;7.83;;;4.00;;
3000;SDS011;1510;51.072;6.678;2023-04-19T14:49:58;7.00;;;3.10;;
3000;SDS011;1510;51.072;6.678;2023-04-19T14:52:25;8.47;;;3.60;;
3000;SDS011;1510;51.072;6.678;2023-04-19T14:54:52;6.77;;;3.30;;
3000;SDS011;1510;51.072;6.678;2023-04-19T14:57:20;7.20;;;3.77;;
3000;SDS011;1510;51.072;6.678;2023-04-19T14:59:47;9.70;;;4.10;;
3000;SDS011;1510;51.072;6.678;2023-04-19T15:02:14;5.97;;;3.37;;
3000;SDS011;1510;51.072;6.678;2023-04-19T15:04:41;5.67;;;2.37;;
3000;SDS011;1510;51.072;6.678;2023-04-19T15:07:08;8.70;;;3.33;;
3000;SDS011;1510;51.072;6.678;2023-04-19T15:09:35;7.97;;;4.20;;
3000;SDS011;1510;51.072;6.678;2023-04-19T15:12:02;7.70;;;3.43;;
3000;SDS011;1510;51.072;6.678;2023-04-19T15:14:31;10.00;;;4.50;;
3000;SDS011;1510;51.072;6.678;2023-04-19T15:16:58;6.67;;;3.00;;